createdAt,value
2023-04-15T00:00:52.666Z,1.40
2023-04-15T00:03:24.679Z,1.80
2023-04-15T00:05:56.755Z,1.53
2023-04-15T00:08:28.627Z,1.40
2023-04-15T00:11:00.452Z,1.37
2023-04-15T00:13:32.270Z,2.30
2023-04-15T00:16:04.118Z,1.80
2023-04-15T00:18:35.951Z,1.73
2023-04-15T00:21:07.772Z,1.73
2023-04-15T00:23:39.614Z,2.00
2023-04-15T00:26:11.708Z,1.77
2023-04-15T00:28:43.908Z,1.57
2023-04-15T00:31:16.002Z,1.80
2023-04-15T00:33:47.930Z,1.43
2023-04-15T00:36:19.818Z,2.10
2023-04-15T00:38:51.705Z,1.80
2023-04-15T00:41:25.090Z,1.30
2023-04-15T00:43:56.954Z,1.67
2023-04-15T00:46:28.781Z,2.10
2023-04-15T00:49:00.831Z,1.83
2023-04-15T00:51:32.718Z,2.87
2023-04-15T00:54:04.535Z,1.97
2023-04-15T00:56:36.399Z,2.40
2023-04-15T00:59:08.279Z,1.97
2023-04-15T01:01:40.231Z,1.73
2023-04-15T01:04:12.314Z,1.70
2023-04-15T01:06:44.363Z,1.97
2023-04-15T01:09:16.293Z,1.70
2023-04-15T01:11:48.107Z,2.00
2023-04-15T01:14:19.968Z,1.73
2023-04-15T01:16:51.884Z,2.27
2023-04-15T01:19:23.729Z,1.80
2023-04-15T01:21:55.729Z,1.70
2023-04-15T01:24:27.625Z,1.80
2023-04-15T01:26:59.578Z,1.60
2023-04-15T01:29:31.443Z,2.00
2023-04-15T01:32:03.311Z,1.60
2023-04-15T01:34:35.850Z,1.50
2023-04-15T01:37:08.144Z,1.57
2023-04-15T01:39:40.014Z,2.20
2023-04-15T01:42:11.986Z,2.47
2023-04-15T01:44:43.833Z,1.40
2023-04-15T01:47:16.611Z,1.40
2023-04-15T01:49:48.474Z,1.63
2023-04-15T01:52:20.305Z,1.80
2023-04-15T01:54:52.141Z,1.50
2023-04-15T01:57:24.011Z,1.77
2023-04-15T01:59:56.203Z,1.97
2023-04-15T02:02:28.210Z,1.70
2023-04-15T02:05:00.751Z,1.67
2023-04-15T02:07:32.660Z,2.27
2023-04-15T02:10:05.087Z,1.90
2023-04-15T02:12:38.731Z,2.00
2023-04-15T02:15:10.684Z,2.53
2023-04-15T02:17:42.533Z,1.53
2023-04-15T02:20:14.605Z,2.10
2023-04-15T02:22:46.496Z,1.97
2023-04-15T02:25:19.871Z,2.97
2023-04-15T02:27:51.770Z,2.43
2023-04-15T02:30:23.649Z,1.80
2023-04-15T02:32:55.549Z,2.13
2023-04-15T02:35:29.466Z,1.90
2023-04-15T02:38:01.793Z,1.70
2023-04-15T02:40:33.658Z,1.53
2023-04-15T02:43:05.547Z,1.77
2023-04-15T02:45:38.796Z,1.80
2023-04-15T02:48:10.683Z,1.80
2023-04-15T02:50:42.562Z,2.17
2023-04-15T02:53:16.152Z,2.53
2023-04-15T02:55:48.140Z,1.90
2023-04-15T02:58:20.026Z,3.03
2023-04-15T03:00:52.182Z,1.80
2023-04-15T03:03:24.076Z,2.10
2023-04-15T03:05:56.143Z,1.80
2023-04-15T03:08:28.828Z,1.90
2023-04-15T03:11:00.993Z,1.90
2023-04-15T03:13:33.101Z,1.50
2023-04-15T03:16:06.726Z,2.30
2023-04-15T03:18:38.920Z,2.20
2023-04-15T03:21:12.679Z,1.93
2023-04-15T03:23:44.867Z,2.23
2023-04-15T03:26:16.981Z,2.10
2023-04-15T03:28:48.984Z,1.73
2023-04-15T03:31:22.632Z,1.87
2023-04-15T03:33:54.752Z,2.37
2023-04-15T03:36:28.372Z,2.10
2023-04-15T03:39:00.496Z,1.60
2023-04-15T03:41:32.494Z,2.10
2023-04-15T03:44:04.352Z,2.70
2023-04-15T03:46:36.237Z,1.67
2023-04-15T03:49:08.297Z,2.30
2023-04-15T03:51:40.086Z,2.13
2023-04-15T03:54:11.960Z,4.50
2023-04-15T03:56:43.862Z,2.00
2023-04-15T03:59:15.671Z,1.80
2023-04-15T04:01:47.622Z,2.53
2023-04-15T04:04:19.677Z,2.53
2023-04-15T04:06:51.616Z,2.30
2023-04-15T04:09:23.454Z,1.90
2023-04-15T04:11:55.283Z,1.90
2023-04-15T04:14:27.143Z,2.50
2023-04-15T04:16:59.063Z,2.50
2023-04-15T04:19:31.252Z,2.33
2023-04-15T04:22:03.292Z,1.90
2023-04-15T04:24:35.298Z,2.57
2023-04-15T04:27:07.162Z,1.67
2023-04-15T04:29:39.206Z,2.33
2023-04-15T04:32:11.147Z,2.20
2023-04-15T04:34:43.207Z,2.07
2023-04-15T04:37:15.024Z,2.10
2023-04-15T04:39:46.874Z,2.53
2023-04-15T04:42:18.764Z,2.70
2023-04-15T04:44:51.860Z,2.43
2023-04-15T04:47:23.764Z,2.00
2023-04-15T04:49:55.564Z,2.30
2023-04-15T04:52:27.438Z,2.23
2023-04-15T04:54:59.308Z,2.37
2023-04-15T04:57:31.248Z,2.03
2023-04-15T05:00:03.207Z,1.90
2023-04-15T05:02:35.287Z,2.30
2023-04-15T05:05:07.322Z,2.40
2023-04-15T05:07:39.224Z,2.70
2023-04-15T05:10:11.103Z,2.10
2023-04-15T05:12:44.482Z,2.17
2023-04-15T05:15:16.339Z,2.30
2023-04-15T05:17:48.255Z,2.23
2023-04-15T05:20:20.396Z,2.40
2023-04-15T05:22:52.305Z,2.23
2023-04-15T05:25:24.461Z,1.83
2023-04-15T05:27:56.339Z,1.83
2023-04-15T05:30:28.202Z,2.47
2023-04-15T05:33:00.122Z,2.23
2023-04-15T05:35:32.222Z,1.90
2023-04-15T05:38:04.096Z,2.40
2023-04-15T05:40:35.967Z,2.03
2023-04-15T05:43:08.002Z,2.77
2023-04-15T05:45:39.866Z,2.50
2023-04-15T05:48:11.744Z,2.57
2023-04-15T05:50:43.614Z,2.50
2023-04-15T05:53:15.486Z,2.20
2023-04-15T05:55:47.328Z,1.70
2023-04-15T05:58:19.439Z,2.30
2023-04-15T06:00:51.322Z,2.43
2023-04-15T06:03:23.363Z,2.13
2023-04-15T06:05:55.296Z,2.30
2023-04-15T06:08:27.193Z,2.60
2023-04-15T06:10:59.264Z,1.87
2023-04-15T06:13:31.165Z,2.33
2023-04-15T06:16:03.046Z,2.77
2023-04-15T06:18:34.919Z,2.30
2023-04-15T06:21:06.871Z,2.27
2023-04-15T06:23:38.693Z,2.73
2023-04-15T06:26:10.608Z,2.20
2023-04-15T06:28:42.434Z,2.27
2023-04-15T06:31:14.289Z,2.73
2023-04-15T06:33:46.080Z,2.80
2023-04-15T06:36:17.972Z,2.37
2023-04-15T06:38:49.915Z,2.23
2023-04-15T06:41:21.885Z,2.20
2023-04-15T06:43:53.748Z,2.80
2023-04-15T06:46:25.945Z,2.50
2023-04-15T06:48:57.942Z,2.17
2023-04-15T06:51:29.720Z,2.50
2023-04-15T06:54:01.606Z,2.10
2023-04-15T06:56:33.459Z,2.40
2023-04-15T06:59:05.264Z,2.90
2023-04-15T07:01:37.093Z,2.27
2023-04-15T07:04:09.286Z,2.57
2023-04-15T07:06:41.242Z,2.63
2023-04-15T07:09:13.105Z,2.50
2023-04-15T07:11:44.941Z,3.30
2023-04-15T07:14:16.775Z,3.03
2023-04-15T07:16:48.624Z,2.40
2023-04-15T07:19:20.544Z,2.77
2023-04-15T07:21:52.534Z,2.93
2023-04-15T07:24:26.792Z,3.10
2023-04-15T07:26:59.582Z,3.03
2023-04-15T07:29:32.206Z,2.60
2023-04-15T07:32:04.122Z,2.50
2023-04-15T07:34:35.957Z,2.83
2023-04-15T07:37:08.150Z,2.33
2023-04-15T07:39:40.107Z,2.60
2023-04-15T07:42:11.981Z,2.60
2023-04-15T07:44:43.839Z,2.77
2023-04-15T07:47:15.705Z,2.40
2023-04-15T07:49:47.555Z,2.40
2023-04-15T07:52:19.450Z,1.70
2023-04-15T07:54:51.322Z,1.67
2023-04-15T07:57:23.125Z,1.90
2023-04-15T07:59:55.009Z,1.70
2023-04-15T08:02:26.977Z,1.40
2023-04-15T08:04:59.067Z,1.43
2023-04-15T08:07:31.321Z,1.80
2023-04-15T08:10:03.166Z,1.33
2023-04-15T08:12:35.087Z,1.90
2023-04-15T08:15:07.059Z,2.00
2023-04-15T08:17:39.025Z,1.73
2023-04-15T08:20:11.151Z,2.10
2023-04-15T08:22:43.153Z,1.60
2023-04-15T08:25:14.982Z,2.33
2023-04-15T08:27:46.824Z,1.97
2023-04-15T08:30:18.633Z,1.90
2023-04-15T08:32:50.484Z,2.30
2023-04-15T08:35:22.516Z,1.87
2023-04-15T08:37:54.368Z,1.83
2023-04-15T08:40:26.230Z,3.03
2023-04-15T08:42:58.090Z,1.90
2023-04-15T08:45:30.144Z,1.90
2023-04-15T08:48:02.163Z,1.80
2023-04-15T08:50:34.232Z,2.23
2023-04-15T08:53:06.144Z,1.67
2023-04-15T08:55:37.971Z,1.70
2023-04-15T08:58:09.836Z,1.90
2023-04-15T09:00:42.250Z,1.70
2023-04-15T09:03:14.113Z,1.40
2023-04-15T09:05:47.052Z,1.80
2023-04-15T09:08:19.058Z,1.87
2023-04-15T09:10:52.798Z,1.73
2023-04-15T09:13:25.266Z,1.50
2023-04-15T09:15:57.229Z,1.43
2023-04-15T09:18:29.291Z,1.30
2023-04-15T09:21:01.174Z,1.20
2023-04-15T09:23:33.030Z,1.90
2023-04-15T09:26:04.863Z,1.67
2023-04-15T09:28:36.697Z,0.83
2023-04-15T09:31:08.556Z,1.10
2023-04-15T09:33:40.593Z,0.80
2023-04-15T09:36:12.426Z,0.80
2023-04-15T09:38:44.346Z,1.13
2023-04-15T09:41:16.234Z,1.20
2023-04-15T09:43:48.134Z,1.53
2023-04-15T09:46:20.052Z,1.20
2023-04-15T09:48:52.019Z,2.17
2023-04-15T09:51:23.931Z,1.57
2023-04-15T09:53:55.794Z,1.50
2023-04-15T09:56:27.921Z,1.40
2023-04-15T09:58:59.733Z,2.10
2023-04-15T10:01:31.817Z,1.30
2023-04-15T10:04:03.998Z,1.20
2023-04-15T10:06:35.985Z,0.80
2023-04-15T10:09:07.904Z,0.80
2023-04-15T10:11:39.788Z,0.87
2023-04-15T10:14:11.620Z,0.50
2023-04-15T10:16:43.515Z,0.70
2023-04-15T10:19:15.382Z,0.70
2023-04-15T10:21:47.198Z,0.80
2023-04-15T10:24:19.021Z,0.70
2023-04-15T10:26:50.840Z,0.80
2023-04-15T10:29:22.710Z,1.00
2023-04-15T10:31:54.511Z,0.73
2023-04-15T10:34:26.383Z,0.73
2023-04-15T10:36:58.233Z,0.87
2023-04-15T10:39:30.069Z,1.10
2023-04-15T10:42:01.911Z,0.97
2023-04-15T10:44:33.690Z,1.00
2023-04-15T10:47:05.529Z,0.83
2023-04-15T10:49:37.383Z,1.03
2023-04-15T10:52:09.200Z,1.10
2023-04-15T10:54:41.031Z,0.80
2023-04-15T10:57:12.923Z,1.13
2023-04-15T10:59:44.783Z,1.30
2023-04-15T11:02:16.652Z,1.07
2023-04-15T11:04:48.721Z,1.20
2023-04-15T11:07:20.599Z,1.37
2023-04-15T11:09:52.448Z,1.10
2023-04-15T11:12:24.318Z,1.90
2023-04-15T11:14:56.215Z,1.20
2023-04-15T11:17:28.174Z,1.10
2023-04-15T11:20:00.149Z,1.17
2023-04-15T11:22:32.411Z,1.40
2023-04-15T11:25:04.406Z,1.23
2023-04-15T11:27:36.235Z,1.20
2023-04-15T11:30:08.048Z,1.23
2023-04-15T11:32:39.898Z,1.17
2023-04-15T11:35:11.863Z,1.40
2023-04-15T11:37:43.718Z,1.40
2023-04-15T11:40:15.588Z,1.27
2023-04-15T11:42:49.964Z,2.10
2023-04-15T11:45:20.822Z,1.30
2023-04-15T11:47:52.786Z,1.30
2023-04-15T11:50:24.735Z,1.00
2023-04-15T11:52:56.564Z,0.70
2023-04-15T11:55:28.434Z,0.77
2023-04-15T11:58:01.584Z,0.60
2023-04-15T12:00:33.720Z,0.80
2023-04-15T12:03:05.783Z,0.77
2023-04-15T12:05:37.964Z,0.97
2023-04-15T12:08:10.198Z,0.73
2023-04-15T12:10:42.393Z,0.70
2023-04-15T12:13:14.255Z,0.70
2023-04-15T12:15:46.593Z,0.70
2023-04-15T12:18:18.690Z,0.63
2023-04-15T12:20:50.657Z,0.80
2023-04-15T12:23:22.488Z,0.77
2023-04-15T12:25:54.673Z,0.70
2023-04-15T12:28:26.579Z,0.50
2023-04-15T12:30:58.438Z,0.80
2023-04-15T12:33:30.483Z,0.90
2023-04-15T12:36:02.395Z,0.57
2023-04-15T12:38:34.396Z,0.90
2023-04-15T12:41:06.197Z,0.67
2023-04-15T12:43:38.119Z,0.70
2023-04-15T12:46:09.987Z,0.70
2023-04-15T12:48:42.173Z,0.63
2023-04-15T12:51:14.037Z,1.00
2023-04-15T12:53:45.968Z,0.70
2023-04-15T12:56:17.823Z,0.90
2023-04-15T12:58:49.710Z,1.13
2023-04-15T13:01:21.670Z,0.80
2023-04-15T13:03:53.686Z,0.80
2023-04-15T13:06:25.629Z,1.63
2023-04-15T13:08:58.701Z,1.00
2023-04-15T13:11:31.086Z,0.70
2023-04-15T13:14:03.489Z,0.63
2023-04-15T13:16:35.589Z,0.80
2023-04-15T13:19:07.757Z,0.60
2023-04-15T13:21:39.652Z,0.70
2023-04-15T13:24:11.698Z,0.50
2023-04-15T13:26:43.520Z,0.50
2023-04-15T13:29:15.848Z,0.53
2023-04-15T13:31:47.838Z,0.70
2023-04-15T13:34:19.761Z,0.40
2023-04-15T13:36:52.185Z,0.30
2023-04-15T13:39:24.669Z,0.50
2023-04-15T13:41:56.540Z,0.57
2023-04-15T13:44:28.430Z,0.50
2023-04-15T13:47:00.498Z,0.43
2023-04-15T13:49:32.920Z,0.55
2023-04-15T13:52:05.387Z,0.60
2023-04-15T13:54:38.239Z,0.30
2023-04-15T13:57:10.533Z,0.75
2023-04-15T13:59:42.992Z,0.30
2023-04-15T14:02:15.751Z,0.40
2023-04-15T14:04:48.482Z,0.20
2023-04-15T14:07:20.919Z,0.40
2023-04-15T14:09:52.789Z,0.60
2023-04-15T14:12:24.604Z,0.40
2023-04-15T14:14:56.499Z,0.50
2023-04-15T14:17:28.432Z,0.30
2023-04-15T14:20:00.313Z,0.77
2023-04-15T14:22:32.182Z,0.40
2023-04-15T14:25:04.047Z,0.30
2023-04-15T14:27:35.988Z,0.80
2023-04-15T14:30:07.914Z,0.30
2023-04-15T14:32:39.780Z,0.40
2023-04-15T14:35:11.764Z,0.60
2023-04-15T14:37:43.600Z,0.60
2023-04-15T14:40:15.514Z,0.40
2023-04-15T14:42:47.342Z,0.50
2023-04-15T14:45:19.251Z,0.40
2023-04-15T14:47:51.222Z,0.40
2023-04-15T14:50:23.467Z,0.40
2023-04-15T14:52:55.528Z,0.90
2023-04-15T14:55:27.406Z,0.30
2023-04-15T14:57:59.317Z,0.30
2023-04-15T15:00:31.196Z,0.30
2023-04-15T15:03:03.206Z,0.70
2023-04-15T15:05:35.372Z,0.70
2023-04-15T15:08:07.285Z,0.40
2023-04-15T15:10:48.013Z,0.30
2023-04-15T15:13:12.781Z,1.30
2023-04-15T15:15:44.939Z,0.30
2023-04-15T15:18:16.796Z,0.60
2023-04-15T15:20:48.625Z,0.50
2023-04-15T15:23:20.504Z,0.60
2023-04-15T15:25:52.393Z,0.37
2023-04-15T15:28:24.561Z,0.30
2023-04-15T15:30:56.693Z,0.40
2023-04-15T15:33:30.089Z,0.40
2023-04-15T15:36:02.170Z,0.80
2023-04-15T15:38:34.354Z,0.50
2023-04-15T15:41:06.257Z,1.27
2023-04-15T15:43:38.125Z,0.40
2023-04-15T15:46:10.020Z,1.27
2023-04-15T15:48:41.935Z,0.70
2023-04-15T15:51:13.784Z,0.67
2023-04-15T15:53:46.177Z,0.50
2023-04-15T15:56:18.074Z,1.83
2023-04-15T15:58:49.891Z,0.47
2023-04-15T16:01:21.798Z,0.20
2023-04-15T16:03:55.791Z,0.43
2023-04-15T16:06:28.096Z,0.93
2023-04-15T16:09:00.399Z,0.67
2023-04-15T16:11:32.471Z,0.40
2023-04-15T16:14:04.273Z,0.53
2023-04-15T16:16:36.204Z,0.33
2023-04-15T16:19:08.027Z,0.80
2023-04-15T16:21:39.905Z,0.50
2023-04-15T16:24:11.762Z,0.30
2023-04-15T16:26:45.063Z,1.13
2023-04-15T16:29:17.030Z,0.30
2023-04-15T16:31:48.957Z,1.03
2023-04-15T16:34:21.039Z,0.60
2023-04-15T16:36:52.963Z,1.27
2023-04-15T16:39:24.834Z,0.43
2023-04-15T16:41:56.731Z,0.47
2023-04-15T16:44:28.596Z,0.50
2023-04-15T16:47:00.653Z,0.50
2023-04-15T16:49:32.558Z,0.53
2023-04-15T16:52:04.482Z,0.53
2023-04-15T16:54:36.489Z,0.40
2023-04-15T16:57:08.423Z,0.60
2023-04-15T16:59:40.238Z,0.60
2023-04-15T17:02:12.171Z,0.50
